Time;durP1;ratioP1;P1;durP2;ratioP2;P2;SDS_P1;SDS_P2;PMS_P1;PMS_P2;Temp;Humidity;BMP_temperature;BMP_pressure;BME280_temperature;BME280_humidity;BME280_pressure;Samples;Min_cycle;Max_cycle;Signal;HPM_P1;HPM_P2
2024/01/05 00:01:43;;;;;;;23.65;14.40;;;;;;;;;;5041689;28;20456;-84
2024/01/05 00:04:33;;;;;;;22.90;15.15;;;;;;;;;;5036364;28;20424;-83
2024/01/05 00:06:59;;;;;;;25.57;13.80;;;;;;;;;;5015986;28;20776;-83
2024/01/05 00:09:26;;;;;;;27.42;15.65;;;;;;;;;;5038911;28;20494;-83
2024/01/05 00:11:52;;;;;;;26.63;14.07;;;;;;;;;;5053333;28;20427;-84
2024/01/05 00:14:19;;;;;;;25.80;15.07;;;;;;;;;;5053353;28;20401;-83
2024/01/05 00:16:52;;;;;;;22.50;15.18;;;;;;;;;;5035320;28;20471;-83
2024/01/05 00:19:18;;;;;;;24.92;15.00;;;;;;;;;;5035830;28;20441;-83
2024/01/05 00:21:50;;;;;;;28.60;15.83;;;;;;;;;;5035192;28;20419;-82
2024/01/05 00:24:16;;;;;;;24.48;15.82;;;;;;;;;;5020005;28;20405;-82
2024/01/05 00:26:43;;;;;;;25.27;15.70;;;;;;;;;;5038215;28;20820;-83
2024/01/05 00:29:09;;;;;;;26.25;15.10;;;;;;;;;;5036113;28;20412;-82
2024/01/05 00:31:35;;;;;;;25.63;15.27;;;;;;;;;;5018587;28;20468;-83
2024/01/05 00:34:01;;;;;;;25.50;15.57;;;;;;;;;;5013418;28;20412;-83
2024/01/05 00:36:27;;;;;;;24.90;15.30;;;;;;;;;;5031685;28;20399;-84
2024/01/05 00:38:53;;;;;;;24.87;15.83;;;;;;;;;;5040664;28;20480;-84
2024/01/05 00:41:19;;;;;;;24.67;15.68;;;;;;;;;;5037545;28;20410;-84
2024/01/05 00:43:45;;;;;;;23.73;14.60;;;;;;;;;;5023438;28;20757;-84
2024/01/05 00:46:11;;;;;;;22.97;16.03;;;;;;;;;;5017142;28;20531;-84
2024/01/05 00:48:38;;;;;;;29.48;15.05;;;;;;;;;;5019099;28;20565;-84
2024/01/05 00:51:04;;;;;;;21.63;14.15;;;;;;;;;;5019767;28;20408;-85
2024/01/05 00:53:32;;;;;;;29.13;14.93;;;;;;;;;;5035800;28;20409;-84
2024/01/05 00:55:58;;;;;;;24.95;15.48;;;;;;;;;;5025779;28;20883;-85
2024/01/05 00:58:24;;;;;;;27.98;15.85;;;;;;;;;;5010458;28;20459;-85
2024/01/05 01:00:50;;;;;;;30.83;14.82;;;;;;;;;;5033483;28;20400;-85
2024/01/05 01:03:16;;;;;;;23.92;14.85;;;;;;;;;;5035304;28;20480;-84
2024/01/05 01:05:43;;;;;;;26.73;17.05;;;;;;;;;;5012621;28;20412;-84
2024/01/05 01:08:10;;;;;;;30.88;16.55;;;;;;;;;;5030840;28;20846;-84
2024/01/05 01:10:37;;;;;;;27.98;16.77;;;;;;;;;;5046517;28;20435;-84
2024/01/05 01:13:03;;;;;;;26.80;17.05;;;;;;;;;;5052297;28;20747;-84
2024/01/05 01:15:29;;;;;;;25.17;15.27;;;;;;;;;;5010247;28;20475;-84
2024/01/05 01:17:55;;;;;;;27.65;15.50;;;;;;;;;;5036066;28;20479;-84
2024/01/05 01:20:21;;;;;;;24.83;15.13;;;;;;;;;;5056556;28;20424;-83
2024/01/05 01:22:47;;;;;;;28.90;16.40;;;;;;;;;;5017465;28;20466;-84
2024/01/05 01:25:13;;;;;;;28.85;15.93;;;;;;;;;;5017993;28;20877;-84
2024/01/05 01:27:39;;;;;;;29.08;16.90;;;;;;;;;;5038974;28;20400;-85
2024/01/05 01:30:08;;;;;;;30.27;16.38;;;;;;;;;;5021946;28;21050;-84
2024/01/05 01:32:36;;;;;;;27.30;17.05;;;;;;;;;;5017849;28;20433;-85
2024/01/05 01:35:03;;;;;;;30.13;16.73;;;;;;;;;;5032885;28;20402;-84
2024/01/05 01:37:29;;;;;;;31.60;17.50;;;;;;;;;;5019295;28;20419;-84
2024/01/05 01:39:55;;;;;;;34.17;18.52;;;;;;;;;;5038035;28;20697;-83
2024/01/05 01:42:21;;;;;;;33.67;18.15;;;;;;;;;;5034777;28;20459;-84
2024/01/05 01:44:47;;;;;;;32.17;18.17;;;;;;;;;;5017475;28;20414;-84
2024/01/05 01:47:13;;;;;;;32.53;17.58;;;;;;;;;;5034265;28;20508;-83
2024/01/05 01:49:39;;;;;;;36.10;19.65;;;;;;;;;;5030427;28;20418;-84
2024/01/05 01:52:06;;;;;;;32.90;19.58;;;;;;;;;;5016159;28;20445;-84
2024/01/05 01:54:32;;;;;;;37.17;20.67;;;;;;;;;;5018120;28;20412;-84
2024/01/05 01:56:59;;;;;;;31.73;20.63;;;;;;;;;;5016972;28;20416;-84
2024/01/05 01:59:26;;;;;;;31.63;18.88;;;;;;;;;;5053829;28;20441;-84
2024/01/05 02:01:52;;;;;;;36.53;18.13;;;;;;;;;;5017404;28;20497;-84
2024/01/05 02:04:20;;;;;;;30.67;18.38;;;;;;;;;;5025495;28;20421;-84
2024/01/05 02:06:46;;;;;;;35.00;19.67;;;;;;;;;;5015987;28;20948;-84
2024/01/05 02:09:13;;;;;;;31.98;17.98;;;;;;;;;;5043216;28;20512;-84
2024/01/05 02:11:42;;;;;;;32.78;17.30;;;;;;;;;;5034233;28;20449;-84
2024/01/05 02:14:08;;;;;;;31.33;18.00;;;;;;;;;;5021888;28;20896;-84
2024/01/05 02:16:35;;;;;;;33.20;17.13;;;;;;;;;;5025686;28;20399;-84
2024/01/05 02:19:04;;;;;;;30.63;16.45;;;;;;;;;;5030970;28;20405;-85
2024/01/05 02:21:32;;;;;;;32.80;15.95;;;;;;;;;;5016023;28;20412;-85
2024/01/05 02:23:59;;;;;;;27.02;14.60;;;;;;;;;;5017050;28;20464;-85
2024/01/05 02:26:25;;;;;;;25.95;15.27;;;;;;;;;;5023600;28;20429;-85
2024/01/05 02:28:51;;;;;;;25.92;14.40;;;;;;;;;;5000523;28;20494;-84
2024/01/05 02:31:17;;;;;;;26.58;13.95;;;;;;;;;;5010308;28;20409;-84
2024/01/05 02:33:43;;;;;;;28.52;15.70;;;;;;;;;;5016255;28;20441;-85
2024/01/05 02:36:09;;;;;;;27.07;14.57;;;;;;;;;;5037314;28;20403;-85
2024/01/05 02:38:35;;;;;;;26.25;13.93;;;;;;;;;;5024367;28;20404;-85
2024/01/05 02:41:02;;;;;;;27.10;13.50;;;;;;;;;;5016518;28;20406;-85
2024/01/05 02:43:28;;;;;;;27.33;14.02;;;;;;;;;;5014510;28;20421;-85
2024/01/05 02:46:03;;;;;;;26.80;13.68;;;;;;;;;;5017350;28;20427;-85
2024/01/05 02:48:29;;;;;;;27.07;13.43;;;;;;;;;;5052711;28;20436;-86
2024/01/05 02:50:55;;;;;;;26.83;13.93;;;;;;;;;;5026470;28;20958;-85
2024/01/05 02:53:21;;;;;;;24.77;15.90;;;;;;;;;;5030314;28;20427;-84
2024/01/05 02:55:47;;;;;;;28.37;13.70;;;;;;;;;;5022741;28;20401;-86
2024/01/05 02:58:16;;;;;;;29.45;14.48;;;;;;;;;;5016962;28;20440;-85
2024/01/05 03:00:42;;;;;;;28.75;14.27;;;;;;;;;;5027120;28;20459;-85
2024/01/05 03:03:08;;;;;;;30.77;15.98;;;;;;;;;;5015839;28;20414;-84
2024/01/05 03:05:34;;;;;;;30.15;16.38;;;;;;;;;;5014732;28;20460;-85
2024/01/05 03:08:01;;;;;;;30.85;14.48;;;;;;;;;;5021969;28;20447;-84
2024/01/05 03:10:27;;;;;;;32.67;16.80;;;;;;;;;;5039963;28;20420;-85
2024/01/05 03:12:53;;;;;;;29.27;16.38;;;;;;;;;;5037245;28;20429;-85
2024/01/05 03:15:19;;;;;;;30.35;14.52;;;;;;;;;;5051801;28;20409;-83
2024/01/05 03:17:47;;;;;;;34.08;15.93;;;;;;;;;;5001161;28;20910;-83
2024/01/05 03:20:16;;;;;;;30.58;15.68;;;;;;;;;;5037528;28;20400;-83
2024/01/05 03:22:42;;;;;;;31.60;15.77;;;;;;;;;;5036740;28;20881;-83
2024/01/05 03:25:08;;;;;;;30.60;16.92;;;;;;;;;;5020667;28;20496;-84
2024/01/05 03:27:34;;;;;;;29.75;15.60;;;;;;;;;;5024264;28;20492;-83
2024/01/05 03:30:00;;;;;;;35.30;16.90;;;;;;;;;;5040283;28;20535;-83
2024/01/05 03:32:26;;;;;;;31.92;16.40;;;;;;;;;;5019040;28;20440;-82
2024/01/05 03:34:52;;;;;;;33.80;16.60;;;;;;;;;;5020333;28;20547;-82
2024/01/05 03:37:19;;;;;;;35.63;16.20;;;;;;;;;;5034597;28;20902;-83
2024/01/05 03:39:45;;;;;;;33.78;15.65;;;;;;;;;;5017875;28;20799;-82
2024/01/05 03:42:11;;;;;;;31.70;15.80;;;;;;;;;;5017658;28;20490;-82
2024/01/05 03:44:37;;;;;;;32.60;15.32;;;;;;;;;;5009366;28;20446;-82
2024/01/05 03:47:03;;;;;;;30.40;16.08;;;;;;;;;;5033329;28;20403;-82
2024/01/05 03:49:29;;;;;;;31.53;15.30;;;;;;;;;;5033209;28;20954;-82
2024/01/05 03:51:55;;;;;;;30.13;14.48;;;;;;;;;;5016574;28;20417;-82
2024/01/05 03:54:21;;;;;;;30.30;15.10;;;;;;;;;;5003337;28;20406;-82
2024/01/05 03:56:47;;;;;;;30.92;16.40;;;;;;;;;;5019098;28;20752;-82
2024/01/05 03:59:14;;;;;;;27.92;15.00;;;;;;;;;;5018252;28;20424;-81
2024/01/05 04:01:47;;;;;;;26.17;14.40;;;;;;;;;;5019348;28;20421;-82
2024/01/05 04:04:13;;;;;;;23.30;13.10;;;;;;;;;;5028244;28;20443;-82
2024/01/05 04:06:39;;;;;;;26.05;14.63;;;;;;;;;;5029778;28;20411;-83
2024/01/05 04:09:09;;;;;;;25.90;13.93;;;;;;;;;;5026894;28;20945;-83
2024/01/05 04:11:36;;;;;;;25.50;14.40;;;;;;;;;;5000489;28;20437;-83
2024/01/05 04:14:03;;;;;;;27.17;13.38;;;;;;;;;;5000103;28;20403;-83
2024/01/05 04:16:29;;;;;;;24.88;12.90;;;;;;;;;;5016834;28;20456;-83
2024/01/05 04:18:55;;;;;;;25.52;13.45;;;;;;;;;;5019881;28;20902;-82
2024/01/05 04:21:21;;;;;;;25.73;13.37;;;;;;;;;;5021178;28;20782;-82
2024/01/05 04:23:47;;;;;;;25.05;14.40;;;;;;;;;;5039217;28;20399;-83
2024/01/05 04:26:14;;;;;;;25.15;13.98;;;;;;;;;;5024650;28;20404;-83
2024/01/05 04:28:40;;;;;;;21.13;12.60;;;;;;;;;;5008150;28;20405;-82
2024/01/05 04:31:06;;;;;;;22.98;13.65;;;;;;;;;;5018265;28;20455;-83
2024/01/05 04:33:32;;;;;;;24.02;12.70;;;;;;;;;;5035537;28;20436;-82
2024/01/05 04:35:59;;;;;;;21.80;12.00;;;;;;;;;;5012487;28;20406;-83
2024/01/05 04:38:25;;;;;;;23.60;13.90;;;;;;;;;;5018489;28;20417;-83
2024/01/05 04:40:51;;;;;;;22.33;12.40;;;;;;;;;;5023326;28;20759;-82
2024/01/05 04:43:17;;;;;;;25.48;13.15;;;;;;;;;;5040298;28;20414;-82
2024/01/05 04:45:43;;;;;;;25.38;13.73;;;;;;;;;;5032611;28;20896;-83
2024/01/05 04:48:09;;;;;;;26.00;13.27;;;;;;;;;;5016087;28;20779;-83
2024/01/05 04:50:35;;;;;;;24.17;13.20;;;;;;;;;;5027800;28;20400;-82
2024/01/05 04:53:01;;;;;;;23.77;14.52;;;;;;;;;;5027106;28;20485;-84
2024/01/05 04:55:27;;;;;;;24.73;13.77;;;;;;;;;;5018832;28;20409;-82
2024/01/05 04:57:53;;;;;;;25.70;12.95;;;;;;;;;;5018506;28;20409;-83
2024/01/05 05:00:20;;;;;;;25.23;13.77;;;;;;;;;;5017569;28;20457;-83
2024/01/05 05:02:46;;;;;;;23.48;14.60;;;;;;;;;;5012362;28;20922;-83
2024/01/05 05:05:12;;;;;;;23.75;15.00;;;;;;;;;;5033668;28;21079;-83
2024/01/05 05:07:38;;;;;;;28.50;13.68;;;;;;;;;;5019434;28;20401;-82
2024/01/05 05:10:04;;;;;;;27.33;14.55;;;;;;;;;;5015229;28;20431;-82
2024/01/05 05:12:30;;;;;;;30.25;14.82;;;;;;;;;;5044652;28;20839;-83
2024/01/05 05:14:56;;;;;;;28.42;14.30;;;;;;;;;;5039575;28;20447;-82
2024/01/05 05:17:22;;;;;;;26.93;14.70;;;;;;;;;;5034385;28;20475;-83
2024/01/05 05:19:54;;;;;;;60.65;19.23;;;;;;;;;;5015542;28;20403;-82
2024/01/05 05:22:20;;;;;;;44.20;16.27;;;;;;;;;;5048544;28;20404;-82
2024/01/05 05:24:46;;;;;;;47.85;18.05;;;;;;;;;;5057180;28;20595;-84
2024/01/05 05:27:12;;;;;;;139.70;26.10;;;;;;;;;;5030551;28;20509;-83
2024/01/05 05:29:38;;;;;;;30.27;16.05;;;;;;;;;;5029816;28;20403;-82
2024/01/05 05:32:06;;;;;;;116.17;23.47;;;;;;;;;;5034257;28;20503;-82
2024/01/05 05:34:33;;;;;;;172.63;25.23;;;;;;;;;;5034572;28;20405;-81
2024/01/05 05:37:03;;;;;;;73.10;19.08;;;;;;;;;;5034088;28;20907;-82
2024/01/05 05:39:41;;;;;;;149.55;22.35;;;;;;;;;;5061229;28;20472;-81
2024/01/05 05:42:10;;;;;;;35.67;16.42;;;;;;;;;;5050537;28;20401;-82
2024/01/05 05:44:38;;;;;;;128.73;24.83;;;;;;;;;;5016588;28;20512;-82
2024/01/05 05:47:04;;;;;;;142.05;26.17;;;;;;;;;;5027229;28;20405;-82
2024/01/05 05:49:30;;;;;;;60.83;20.17;;;;;;;;;;5039976;28;20913;-81
2024/01/05 05:52:02;;;;;;;56.70;18.17;;;;;;;;;;5051171;28;20425;-82
2024/01/05 05:54:28;;;;;;;180.77;27.17;;;;;;;;;;5034584;28;20405;-82
2024/01/05 05:56:54;;;;;;;94.38;20.95;;;;;;;;;;5012773;28;20431;-84
2024/01/05 05:59:23;;;;;;;101.05;21.38;;;;;;;;;;5026999;28;20502;-83
2024/01/05 06:02:46;;;;;;;133.65;23.17;;;;;;;;;;5015725;28;20768;-83
2024/01/05 06:05:11;;;;;;;97.28;23.30;;;;;;;;;;4952941;28;20432;-83
2024/01/05 06:07:58;;;;;;;48.42;20.00;;;;;;;;;;4942928;28;20414;-83
2024/01/05 06:11:02;;;;;;;106.63;23.15;;;;;;;;;;4973955;28;20407;-83
2024/01/05 06:13:35;;;;;;;92.68;22.85;;;;;;;;;;5002263;28;20448;-83
2024/01/05 06:16:02;;;;;;;100.70;26.95;;;;;;;;;;5028781;28;20412;-84
2024/01/05 06:18:46;;;;;;;50.75;21.27;;;;;;;;;;5014389;28;20405;-83
2024/01/05 06:21:12;;;;;;;151.73;28.73;;;;;;;;;;5033778;28;20731;-83
2024/01/05 06:23:41;;;;;;;85.28;21.65;;;;;;;;;;4992464;28;20464;-82
2024/01/05 06:26:08;;;;;;;75.03;21.10;;;;;;;;;;5022311;28;20488;-83
2024/01/05 06:28:34;;;;;;;33.00;19.90;;;;;;;;;;5027656;28;20753;-83
2024/01/05 06:31:01;;;;;;;32.92;17.15;;;;;;;;;;4985945;28;20414;-83
2024/01/05 06:33:27;;;;;;;41.05;18.88;;;;;;;;;;4994656;28;20463;-84
2024/01/05 06:35:53;;;;;;;75.85;22.27;;;;;;;;;;5041592;28;20409;-83
2024/01/05 06:38:19;;;;;;;56.70;20.57;;;;;;;;;;5003068;28;20733;-83
2024/01/05 06:40:45;;;;;;;33.00;17.70;;;;;;;;;;5008649;28;20431;-82
2024/01/05 06:43:11;;;;;;;30.77;17.02;;;;;;;;;;4999493;28;20408;-84
2024/01/05 06:45:37;;;;;;;66.22;21.15;;;;;;;;;;5001355;28;20411;-83
2024/01/05 06:48:04;;;;;;;65.72;18.20;;;;;;;;;;4993675;28;20409;-84
2024/01/05 06:50:30;;;;;;;32.65;16.85;;;;;;;;;;5007824;28;20424;-84
2024/01/05 06:53:11;;;;;;;31.90;16.90;;;;;;;;;;5016129;28;20425;-83
2024/01/05 06:55:45;;;;;;;39.75;17.50;;;;;;;;;;4996422;28;20965;-84
2024/01/05 06:58:14;;;;;;;31.80;17.63;;;;;;;;;;5013288;28;20407;-83
2024/01/05 07:03:56;;;;;;;30.13;17.30;;;;;;;;;;4971188;28;20980;-84
2024/01/05 07:06:34;;;;;;;60.88;18.23;;;;;;;;;;4946322;28;20433;-83
2024/01/05 07:09:09;;;;;;;30.80;15.83;;;;;;;;;;4962032;28;20412;-83
2024/01/05 07:11:35;;;;;;;31.42;17.15;;;;;;;;;;4949854;28;20458;-84
2024/01/05 07:17:27;;;;;;;67.10;21.75;;;;;;;;;;4973213;28;20405;-83
2024/01/05 07:19:53;;;;;;;32.53;19.40;;;;;;;;;;5014640;28;20448;-83
2024/01/05 07:22:57;;;;;;;33.53;17.73;;;;;;;;;;5018175;28;20433;-83
2024/01/05 07:25:35;;;;;;;35.00;17.15;;;;;;;;;;5033773;28;20448;-83
2024/01/05 07:28:01;;;;;;;37.97;17.70;;;;;;;;;;5032103;28;20409;-83
2024/01/05 07:30:27;;;;;;;33.72;16.85;;;;;;;;;;5032793;28;20981;-84
2024/01/05 07:32:53;;;;;;;34.10;17.38;;;;;;;;;;5033719;28;20417;-83
2024/01/05 07:35:22;;;;;;;32.83;16.45;;;;;;;;;;5017086;28;20410;-83
2024/01/05 07:37:48;;;;;;;144.07;21.95;;;;;;;;;;5039862;28;20906;-84
2024/01/05 07:40:14;;;;;;;34.05;16.50;;;;;;;;;;5037676;28;20897;-84
2024/01/05 07:42:42;;;;;;;33.92;18.10;;;;;;;;;;5051436;28;20999;-85
2024/01/05 07:45:13;;;;;;;32.58;16.40;;;;;;;;;;5031925;28;20534;-84
2024/01/05 07:48:00;;;;;;;92.32;21.20;;;;;;;;;;5011624;28;20395;-84
2024/01/05 07:50:37;;;;;;;36.70;17.98;;;;;;;;;;5022791;28;20924;-84
2024/01/05 07:53:09;;;;;;;43.15;22.05;;;;;;;;;;5025120;28;20449;-84
2024/01/05 07:55:45;;;;;;;39.93;20.43;;;;;;;;;;5021185;28;20411;-84
2024/01/05 07:58:18;;;;;;;43.20;21.58;;;;;;;;;;5029287;28;20417;-84
2024/01/05 08:00:47;;;;;;;40.55;20.83;;;;;;;;;;5007857;28;20476;-85
2024/01/05 08:03:16;;;;;;;39.80;19.92;;;;;;;;;;5021723;28;20409;-84
2024/01/05 08:05:42;;;;;;;45.38;22.23;;;;;;;;;;5008646;28;20968;-84
2024/01/05 08:08:08;;;;;;;71.95;25.58;;;;;;;;;;5033340;28;20429;-84
2024/01/05 08:10:35;;;;;;;48.47;24.50;;;;;;;;;;5049721;28;20423;-83
2024/01/05 08:13:04;;;;;;;47.47;24.25;;;;;;;;;;5026978;28;20949;-84
2024/01/05 08:15:30;;;;;;;55.25;24.35;;;;;;;;;;5031459;28;20413;-84
2024/01/05 08:17:56;;;;;;;101.20;27.48;;;;;;;;;;5029545;28;20950;-82
2024/01/05 08:20:23;;;;;;;53.15;26.30;;;;;;;;;;5025109;28;20461;-83
2024/01/05 08:22:49;;;;;;;52.17;24.42;;;;;;;;;;5024477;28;20399;-84
2024/01/05 08:25:15;;;;;;;58.38;25.95;;;;;;;;;;5035995;28;20475;-84
2024/01/05 08:27:43;;;;;;;93.97;29.38;;;;;;;;;;5023938;28;20413;-83
2024/01/05 08:30:13;;;;;;;62.25;25.73;;;;;;;;;;5013256;28;20449;-83
2024/01/05 08:32:39;;;;;;;56.08;26.60;;;;;;;;;;5031022;28;20456;-82
2024/01/05 08:35:06;;;;;;;64.57;27.30;;;;;;;;;;5033371;28;20575;-83
2024/01/05 08:37:32;;;;;;;116.85;33.33;;;;;;;;;;5030289;28;20433;-83
2024/01/05 08:39:58;;;;;;;64.78;28.00;;;;;;;;;;5026047;28;20401;-83
2024/01/05 08:42:24;;;;;;;62.40;26.55;;;;;;;;;;5019013;28;20433;-83
2024/01/05 08:44:51;;;;;;;71.25;26.15;;;;;;;;;;5031898;28;20487;-83
2024/01/05 08:47:17;;;;;;;64.93;26.63;;;;;;;;;;5037590;28;20412;-84
2024/01/05 08:49:43;;;;;;;52.80;24.73;;;;;;;;;;5038779;28;20429;-83
2024/01/05 08:52:09;;;;;;;54.80;25.43;;;;;;;;;;5047466;28;20557;-84
2024/01/05 08:54:39;;;;;;;58.30;25.70;;;;;;;;;;5039738;28;20408;-83
2024/01/05 08:57:06;;;;;;;63.40;25.65;;;;;;;;;;5055829;28;20395;-83
2024/01/05 08:59:36;;;;;;;59.13;24.70;;;;;;;;;;5039588;28;20814;-84
2024/01/05 09:02:08;;;;;;;56.40;24.30;;;;;;;;;;5037641;28;20463;-84
2024/01/05 09:04:34;;;;;;;49.17;24.52;;;;;;;;;;5012949;28;20460;-85
2024/01/05 09:07:00;;;;;;;157.85;29.00;;;;;;;;;;5026434;28;20897;-86
2024/01/05 09:09:26;;;;;;;46.97;22.80;;;;;;;;;;5014039;28;20757;-85
2024/01/05 09:11:52;;;;;;;44.87;23.70;;;;;;;;;;5049828;28;20423;-83
2024/01/05 09:14:18;;;;;;;42.28;21.95;;;;;;;;;;5031487;28;20403;-84
2024/01/05 09:16:45;;;;;;;49.22;22.67;;;;;;;;;;5016859;28;20406;-84
2024/01/05 09:19:11;;;;;;;50.10;21.38;;;;;;;;;;5017445;28;20493;-84
2024/01/05 09:21:37;;;;;;;44.03;21.77;;;;;;;;;;5034182;28;20905;-84
2024/01/05 09:24:04;;;;;;;43.08;21.27;;;;;;;;;;5014709;28;20482;-83
2024/01/05 09:26:30;;;;;;;114.78;24.25;;;;;;;;;;5041593;28;20903;-83
2024/01/05 09:28:57;;;;;;;55.90;20.90;;;;;;;;;;5033409;28;20402;-84
2024/01/05 09:31:24;;;;;;;38.00;19.35;;;;;;;;;;5018861;28;20480;-84
2024/01/05 09:33:51;;;;;;;40.72;19.38;;;;;;;;;;5015911;28;20437;-83
2024/01/05 09:36:17;;;;;;;46.20;20.63;;;;;;;;;;5037308;28;20405;-82
2024/01/05 09:38:43;;;;;;;56.92;21.55;;;;;;;;;;5035803;28;20412;-82
2024/01/05 09:41:13;;;;;;;41.47;19.88;;;;;;;;;;5016766;28;20937;-83
2024/01/05 09:43:41;;;;;;;39.30;19.63;;;;;;;;;;5018120;28;20407;-82
2024/01/05 09:46:07;;;;;;;53.00;19.50;;;;;;;;;;5037602;28;20432;-82
2024/01/05 09:48:33;;;;;;;88.63;20.93;;;;;;;;;;5034600;28;20412;-82
2024/01/05 09:51:00;;;;;;;36.88;18.23;;;;;;;;;;5027965;28;20438;-82
2024/01/05 09:53:26;;;;;;;34.07;18.77;;;;;;;;;;5000541;28;20482;-83
2024/01/05 09:55:54;;;;;;;46.63;19.40;;;;;;;;;;5014702;28;20441;-83
2024/01/05 09:58:26;;;;;;;132.73;24.40;;;;;;;;;;5018709;28;20403;-83
2024/01/05 10:00:59;;;;;;;35.08;17.38;;;;;;;;;;5024088;28;20538;-84
2024/01/05 10:03:26;;;;;;;35.55;18.02;;;;;;;;;;5019865;28;20416;-84
2024/01/05 10:05:59;;;;;;;40.22;17.60;;;;;;;;;;5011194;28;20444;-83
2024/01/05 10:08:35;;;;;;;119.82;22.48;;;;;;;;;;5038235;28;20405;-83
2024/01/05 10:11:03;;;;;;;37.60;18.63;;;;;;;;;;5002839;28;20455;-83
2024/01/05 10:13:31;;;;;;;37.35;18.67;;;;;;;;;;5042522;28;20428;-84
2024/01/05 10:16:02;;;;;;;64.75;22.38;;;;;;;;;;4999603;28;20430;-84
2024/01/05 10:18:38;;;;;;;41.23;19.17;;;;;;;;;;5030639;28;20449;-83
2024/01/05 10:21:11;;;;;;;38.58;18.98;;;;;;;;;;5015783;28;20458;-83
2024/01/05 10:23:43;;;;;;;39.08;18.88;;;;;;;;;;5013745;28;20821;-83
2024/01/05 10:26:16;;;;;;;47.08;17.77;;;;;;;;;;5018734;28;20777;-83
2024/01/05 10:28:43;;;;;;;41.47;18.45;;;;;;;;;;5035377;28;20397;-82
2024/01/05 10:31:13;;;;;;;41.38;18.52;;;;;;;;;;5016103;28;20397;-83
2024/01/05 10:33:51;;;;;;;41.92;19.45;;;;;;;;;;5013264;28;20797;-83
2024/01/05 10:36:21;;;;;;;40.27;19.10;;;;;;;;;;5032345;28;20749;-82
2024/01/05 10:38:48;;;;;;;43.83;19.98;;;;;;;;;;5032143;28;20397;-83
2024/01/05 10:41:20;;;;;;;36.70;18.55;;;;;;;;;;5012216;28;20500;-84
2024/01/05 10:43:47;;;;;;;37.88;18.48;;;;;;;;;;5015853;28;20979;-84
2024/01/05 10:46:21;;;;;;;44.35;19.73;;;;;;;;;;5017668;28;20405;-84
2024/01/05 10:48:47;;;;;;;53.60;22.23;;;;;;;;;;5032519;28;20459;-85
2024/01/05 10:51:15;;;;;;;39.47;19.02;;;;;;;;;;5006387;28;20759;-83
2024/01/05 10:53:43;;;;;;;41.37;20.30;;;;;;;;;;5013100;28;20476;-83
2024/01/05 10:56:12;;;;;;;41.28;19.55;;;;;;;;;;5045537;28;20408;-83
2024/01/05 10:58:42;;;;;;;82.68;22.92;;;;;;;;;;5028784;28;20806;-83
2024/01/05 11:01:16;;;;;;;41.40;19.75;;;;;;;;;;5033990;28;20396;-85
2024/01/05 11:03:44;;;;;;;29.15;18.40;;;;;;;;;;5018612;28;20405;-85
2024/01/05 11:06:13;;;;;;;40.58;19.13;;;;;;;;;;5019655;28;20499;-83
2024/01/05 11:08:58;;;;;;;273.65;35.75;;;;;;;;;;5020282;28;20420;-83
2024/01/05 11:11:37;;;;;;;32.50;17.08;;;;;;;;;;5029331;28;20917;-83
2024/01/05 11:14:32;;;;;;;33.45;17.33;;;;;;;;;;5013826;28;20424;-83
2024/01/05 11:17:06;;;;;;;41.53;20.48;;;;;;;;;;5020129;28;20453;-84
2024/01/05 11:20:03;;;;;;;33.22;17.88;;;5.20;99.90;;;;;;5031637;28;20405;-83
2024/01/05 11:22:31;;;;;;;36.08;18.65;;;;;;;;;;5031688;28;20911;-84
2024/01/05 11:24:59;;;;;;;31.45;18.75;;;;;;;;;;5049859;28;20405;-83
2024/01/05 11:27:29;;;;;;;46.97;25.05;;;;;;;;;;5030047;28;20487;-83
2024/01/05 11:29:56;;;;;;;30.40;16.87;;;;;;;;;;5044277;28;20496;-83
2024/01/05 11:32:50;;;;;;;31.15;16.95;;;;;;;;;;5004805;28;20422;-84
2024/01/05 11:35:16;;;;;;;32.55;18.17;;;;;;;;;;5018185;28;20409;-84
2024/01/05 11:37:47;;;;;;;35.75;17.50;;;;;;;;;;5022557;28;20389;-83
2024/01/05 11:40:35;;;;;;;34.97;19.83;;;;;;;;;;5021008;28;20737;-84
2024/01/05 11:43:22;;;;;;;30.17;16.23;;;;;;;;;;5032970;28;20418;-84
2024/01/05 11:45:49;;;;;;;31.85;17.30;;;;;;;;;;5045517;28;20469;-84
2024/01/05 11:48:38;;;;;;;63.03;18.17;;;;;;;;;;5043973;28;20444;-83
2024/01/05 11:51:04;;;;;;;25.83;13.82;;;;;;;;;;5055113;28;20407;-83
2024/01/05 11:53:31;;;;;;;23.30;13.45;;;;;;;;;;5031451;28;20452;-83
2024/01/05 11:55:58;;;;;;;25.60;13.70;;;;;;;;;;5026989;28;20622;-83
2024/01/05 11:58:31;;;;;;;30.20;15.15;;;;;;;;;;5039445;28;20410;-84
2024/01/05 12:00:58;;;;;;;27.00;13.90;;;;;;;;;;5024256;28;20461;-84
2024/01/05 12:03:25;;;;;;;28.55;14.60;;;;;;;;;;5044191;28;20457;-84
2024/01/05 12:06:12;;;;;;;30.48;14.52;;;;;;;;;;5074101;28;20391;-84
2024/01/05 12:08:41;;;;;;;42.35;15.95;;;;;;;;;;5033359;28;20408;-84
2024/01/05 12:11:11;;;;;;;28.50;14.60;;;;;;;;;;5016746;28;20591;-84
2024/01/05 12:13:38;;;;;;;29.38;14.75;;;;;;;;;;5010219;28;20427;-83
2024/01/05 12:16:06;;;;;;;28.80;14.98;;;;;;;;;;5000488;28;20435;-83
2024/01/05 12:18:33;;;;;;;83.88;18.02;;;;;;;;;;5006884;28;20513;-84
2024/01/05 12:21:11;;;;;;;30.23;15.57;;;;;;;;;;5026467;28;20399;-84
2024/01/05 12:23:53;;;;;;;26.77;13.95;;;;;;;;;;5031497;28;20485;-84
2024/01/05 12:26:22;;;;;;;37.08;14.45;;;;;;;;;;5009988;28;20909;-84
2024/01/05 12:28:54;;;;;;;37.05;14.13;;;;;;;;;;5003850;28;21121;-83
2024/01/05 12:31:23;;;;;;;22.00;12.32;;;;;;;;;;5015121;28;20410;-84
2024/01/05 12:33:59;;;;;;;20.60;11.48;;;;;;;;;;4998912;28;20970;-84
2024/01/05 12:36:42;;;;;;;24.90;13.03;;;;;;;;;;5037687;28;20955;-84
2024/01/05 12:39:24;;;;;;;24.70;13.18;;;;;;;;;;4999987;28;20538;-83
2024/01/05 12:41:50;;;;;;;25.25;13.00;;;;;;;;;;5014549;28;20416;-84
2024/01/05 12:44:19;;;;;;;29.17;14.55;;;;;;;;;;5014969;28;20485;-83
2024/01/05 12:46:46;;;;;;;26.47;14.23;;;;;;;;;;5032022;28;20407;-82
2024/01/05 12:49:21;;;;;;;29.80;14.70;;;;;;;;;;5003442;28;20415;-85
2024/01/05 12:51:47;;;;;;;27.98;13.98;;;;;;;;;;5034554;28;20413;-85
2024/01/05 12:54:27;;;;;;;27.83;14.05;;;;;;;;;;5024889;28;20399;-85
2024/01/05 12:56:58;;;;;;;24.63;13.40;;;;;;;;;;4983576;28;20832;-84
2024/01/05 12:59:25;;;;;;;26.98;13.75;;;;;;;;;;4996322;28;20451;-84
2024/01/05 13:01:59;;;;;;;24.02;13.35;;;;;;;;;;5030870;28;20921;-85
2024/01/05 13:04:41;;;;;;;24.98;13.20;;;;;;;;;;4982220;28;20411;-85
2024/01/05 13:07:13;;;;;;;22.25;13.85;;;;;;;;;;4998871;28;20407;-84
2024/01/05 13:09:44;;;;;;;23.20;12.95;;;;;;;;;;5012367;28;20423;-84
2024/01/05 13:12:11;;;;;;;24.98;14.13;;;;;;;;;;5039023;28;20433;-86
2024/01/05 13:14:40;;;;;;;26.00;13.30;;;;;;;;;;5008411;28;20395;-87
2024/01/05 13:17:06;;;;;;;25.70;14.27;;;;;;;;;;5017516;28;20397;-86
2024/01/05 13:19:33;;;;;;;19.17;11.30;;;;;;;;;;5013516;28;20408;-87
2024/01/05 13:21:59;;;;;;;18.23;10.68;;;;;;;;;;5044105;28;20401;-87
2024/01/05 13:24:36;;;;;;;19.80;11.20;;;;;;;;;;5023996;28;21350;-86
2024/01/05 13:27:23;;;;;;;16.65;9.85;;;;;;;;;;5015057;28;20460;-86
2024/01/05 13:29:53;;;;;;;14.15;8.25;;;;;;;;;;5018884;28;20477;-85
2024/01/05 13:32:19;;;;;;;12.80;8.30;;;;;;;;;;5033564;28;20434;-84
2024/01/05 13:34:54;;;;;;;15.15;7.82;;;;;;;;;;5051179;28;20477;-85
2024/01/05 13:37:29;;;;;;;11.27;6.68;;;;;;;;;;5016836;28;20412;-86
2024/01/05 13:39:58;;;;;;;12.63;6.78;;;;;;;;;;5017947;28;20437;-86
2024/01/05 13:42:33;;;;;;;4.05;2.40;;;;;;;;;;5034177;28;20449;-86
2024/01/05 13:45:05;;;;;;;4.82;2.78;;;;;;;;;;5033593;28;20397;-85
2024/01/05 13:50:41;;;;;;;3.25;1.80;;;;;;;;;;5017532;28;20393;-84
2024/01/05 13:53:43;;;;;;;69.30;8.15;;;;;;;;;;5037290;28;20503;-86
2024/01/05 13:56:27;;;;;;;3.23;1.60;;;;;;;;;;5035767;28;20400;-85
2024/01/05 13:58:56;;;;;;;9.57;2.33;;;;;;;;;;5035565;28;20455;-85
2024/01/05 14:01:23;;;;;;;2.35;1.30;;;;;;;;;;5028257;28;20408;-85
2024/01/05 14:03:49;;;;;;;2.85;1.60;;;;;;;;;;5031205;28;20893;-86
2024/01/05 14:06:15;;;;;;;2.07;1.10;;;;;;;;;;5035650;28;20419;-85
2024/01/05 14:08:41;;;;;;;2.22;0.95;;;;;;;;;;5039950;28;20417;-84
2024/01/05 14:11:17;;;;;;;3.15;1.65;;;;;;;;;;5030210;28;20878;-84
2024/01/05 14:13:49;;;;;;;4.83;2.90;;;;;;;;;;5012319;28;20426;-84
2024/01/05 14:16:28;;;;;;;3.60;1.50;;;;;;;;;;5036980;28;20476;-84
2024/01/05 14:19:02;;;;;;;1.98;1.10;;;;;;;;;;5023168;28;20790;-86
2024/01/05 14:21:31;;;;;;;2.15;1.35;;;;;;;;;;5044972;28;20543;-86
2024/01/05 14:23:57;;;;;;;1.90;1.30;;;;;;;;;;5007570;28;20483;-86
2024/01/05 14:26:28;;;;;;;3.25;1.70;;;;;;;;;;5000528;28;20404;-87
2024/01/05 14:28:55;;;;;;;9.98;5.50;;;;;;;;;;5021852;28;20409;-84
2024/01/05 14:31:28;;;;;;;11.07;7.35;;;;;;;;;;5014879;28;20773;-84
2024/01/05 14:33:57;;;;;;;15.07;8.68;;;;;;;;;;5040841;28;20401;-84
2024/01/05 14:36:26;;;;;;;18.15;10.82;;;;;;;;;;5047838;28;20493;-85
2024/01/05 14:38:58;;;;;;;17.95;11.35;;;;;;;;;;5011500;28;20898;-87
2024/01/05 14:41:24;;;;;;;19.90;11.40;;;;;;;;;;5015501;28;20479;-84